Time;durP1;ratioP1;P1;durP2;ratioP2;P2;SDS_P1;SDS_P2;PMS_P1;PMS_P2;Temp;Humidity;BMP_temperature;BMP_pressure;BME280_temperature;BME280_humidity;BME280_pressure;Samples;Min_cycle;Max_cycle;Signal;HPM_P1;HPM_P2
2022/05/13 00:01:54;;;;;;;4.35;2.40;;;;;;;13.78;54.46;99894.13;5036901;28;20718;-67
2022/05/13 00:04:20;;;;;;;7.47;2.67;;;;;;;13.74;54.39;99889.00;5036548;28;20052;-66
2022/05/13 00:06:47;;;;;;;9.95;4.22;;;;;;;13.71;55.09;99894.50;5036060;28;20060;-66
2022/05/13 00:09:12;;;;;;;6.95;2.60;;;;;;;13.67;54.44;99892.97;5036340;28;20057;-66
2022/05/13 00:11:38;;;;;;;7.22;2.63;;;;;;;13.64;54.96;99889.66;5017292;28;20041;-65
2022/05/13 00:14:04;;;;;;;10.02;3.35;;;;;;;13.62;54.99;99888.91;5016039;28;20037;-65
2022/05/13 00:16:30;;;;;;;4.47;2.60;;;;;;;13.57;54.95;99888.34;5015172;28;20030;-66
2022/05/13 00:18:55;;;;;;;10.10;2.85;;;;;;;13.53;55.13;99888.50;5014499;28;20030;-66
2022/05/13 00:21:20;;;;;;;9.48;3.40;;;;;;;13.45;55.29;99888.09;5014959;28;20530;-66
2022/05/13 00:23:46;;;;;;;6.20;2.50;;;;;;;13.42;55.73;99887.44;5016415;28;20065;-65
2022/05/13 00:26:11;;;;;;;4.80;2.17;;;;;;;13.38;55.69;99886.75;5013672;28;20042;-66
2022/05/13 00:28:37;;;;;;;6.65;2.67;;;;;;;13.36;55.19;99885.16;5015017;28;20028;-65
2022/05/13 00:31:04;;;;;;;8.95;3.42;;;;;;;13.32;55.81;99882.69;5014724;28;20045;-67
2022/05/13 00:33:31;;;;;;;5.70;2.72;;;;;;;13.28;55.45;99881.16;5017103;28;20034;-66
2022/05/13 00:35:57;;;;;;;7.93;2.08;;;;;;;13.23;55.69;99877.06;5016313;28;20487;-66
2022/05/13 00:38:22;;;;;;;6.57;2.47;;;;;;;13.23;55.48;99877.06;5016403;28;20118;-65
2022/05/13 00:40:48;;;;;;;6.13;2.38;;;;;;;13.14;55.37;99877.59;5017582;28;20411;-66
2022/05/13 00:43:35;;;;;;;7.65;2.67;;;;;;;13.11;56.03;99884.75;5016517;28;20154;-67
2022/05/13 00:46:01;;;;;;;10.75;3.13;;;;;;;13.05;56.10;99879.84;5016726;28;20080;-66
2022/05/13 00:48:26;;;;;;;11.98;2.83;;;;;;;13.04;55.99;99878.13;5035742;28;20121;-66
2022/05/13 00:50:52;;;;;;;8.40;3.38;;;;;;;12.99;55.91;99877.53;5034947;28;20076;-66
2022/05/13 00:53:17;;;;;;;4.03;2.00;;;;;;;12.98;56.18;99875.00;5035440;28;20034;-65
2022/05/13 00:55:45;;;;;;;7.15;2.55;;;;;;;12.92;56.20;99870.91;5035247;28;20033;-66
2022/05/13 00:58:17;;;;;;;10.35;3.28;;;;;;;12.89;57.04;99879.00;5035405;28;20033;-65
2022/05/13 01:00:43;;;;;;;8.57;2.80;;;;;;;12.86;56.53;99873.88;5021195;28;20040;-65
2022/05/13 01:03:11;;;;;;;11.00;3.75;;;;;;;12.81;56.94;99870.66;5047215;28;20029;-66
2022/05/13 01:05:40;;;;;;;11.15;3.28;;;;;;;12.77;57.07;99872.59;5034502;28;20128;-67
2022/05/13 01:08:07;;;;;;;8.95;3.05;;;;;;;12.74;57.30;99874.59;5024185;28;20460;-66
2022/05/13 01:10:35;;;;;;;6.45;3.15;;;;;;;12.74;57.44;99886.03;5016492;28;20049;-66
2022/05/13 01:13:07;;;;;;;10.95;4.22;;;;;;;12.72;57.11;99873.81;5011848;28;20042;-66
2022/05/13 01:15:35;;;;;;;9.65;2.80;;;;;;;12.72;57.06;99879.13;5011933;28;20034;-66
2022/05/13 01:18:07;;;;;;;8.07;2.70;;;;;;;12.69;56.89;99880.13;5010839;28;20049;-68
2022/05/13 01:20:37;;;;;;;6.60;3.00;;;;;;;12.62;56.99;99873.47;5011226;28;20446;-68
2022/05/13 01:23:09;;;;;;;5.30;2.85;;;;;;;12.53;57.20;99876.63;5011350;28;20038;-67
2022/05/13 01:25:40;;;;;;;6.55;2.42;;;;;;;12.49;57.69;99875.97;4995999;28;20044;-68
2022/05/13 01:28:09;;;;;;;5.15;2.35;;;;;;;12.43;57.74;99882.47;5010792;28;20124;-67
2022/05/13 01:30:38;;;;;;;9.35;2.83;;;;;;;12.37;58.18;99876.66;5011308;28;20026;-68
2022/05/13 01:33:03;;;;;;;5.65;2.47;;;;;;;12.32;57.61;99881.34;5011263;28;20438;-68
2022/05/13 01:35:29;;;;;;;4.85;2.15;;;;;;;12.29;58.19;99881.50;5011399;28;20030;-67
2022/05/13 01:37:55;;;;;;;13.38;2.80;;;;;;;12.27;57.71;99901.88;5010622;28;20056;-67
2022/05/13 01:40:20;;;;;;;12.23;2.95;;;;;;;12.23;57.94;99887.97;5011075;28;20108;-67
2022/05/13 01:42:45;;;;;;;7.45;2.20;;;;;;;12.16;57.90;99895.41;5011216;28;20380;-67
2022/05/13 01:45:11;;;;;;;8.00;2.53;;;;;;;12.15;57.83;99892.81;5011191;28;20042;-66
2022/05/13 01:47:38;;;;;;;6.50;2.85;;;;;;;12.13;57.40;99892.91;5010658;28;20117;-68
2022/05/13 01:50:05;;;;;;;5.40;2.08;;;;;;;12.11;57.47;99892.16;5010904;28;20112;-67
2022/05/13 01:52:31;;;;;;;14.25;4.10;;;;;;;12.09;57.08;99887.88;5010979;28;20042;-67
2022/05/13 01:54:56;;;;;;;11.00;3.17;;;;;;;12.08;57.05;99892.28;5011060;28;20033;-67
2022/05/13 01:57:22;;;;;;;11.30;2.67;;;;;;;12.06;57.06;99904.75;5010404;28;20034;-67
2022/05/13 01:59:47;;;;;;;4.07;2.33;;;;;;;12.02;56.98;99890.00;5010402;28;20041;-67
2022/05/13 02:02:13;;;;;;;11.60;2.72;;;;;;;11.98;57.09;99888.44;5011092;28;20029;-66
2022/05/13 02:04:38;;;;;;;6.38;2.45;;;;;;;11.96;57.21;99887.66;5011618;28;20038;-67
2022/05/13 02:07:04;;;;;;;7.50;2.63;;;;;;;11.93;57.40;99885.19;4991700;28;20120;-67
2022/05/13 02:09:30;;;;;;;6.97;3.13;;;;;;;11.91;57.19;99884.41;5030089;28;20494;-68
2022/05/13 02:11:55;;;;;;;5.78;2.47;;;;;;;11.90;57.41;99878.28;5030567;28;20486;-68
2022/05/13 02:14:21;;;;;;;5.07;2.10;;;;;;;11.91;57.19;99879.13;5030386;28;20029;-67
2022/05/13 02:16:46;;;;;;;5.63;2.75;;;;;;;11.89;57.25;99881.00;5029180;28;20033;-68
2022/05/13 02:19:12;;;;;;;6.15;2.78;;;;;;;11.88;57.47;99871.38;5029977;28;20044;-68
2022/05/13 02:21:38;;;;;;;5.82;2.72;;;;;;;11.86;57.68;99870.56;5012855;28;20045;-68
2022/05/13 02:24:05;;;;;;;11.73;3.15;;;;;;;11.79;57.18;99875.34;5029925;28;20040;-67
2022/05/13 02:26:30;;;;;;;9.35;2.60;;;;;;;11.73;57.28;99884.41;5029482;28;20116;-68
2022/05/13 02:28:59;;;;;;;9.30;2.60;;;;;;;11.70;56.79;99886.38;5029021;28;20196;-68
2022/05/13 02:31:25;;;;;;;5.05;2.05;;;;;;;11.66;57.38;99885.69;5030018;28;20682;-68
2022/05/13 02:33:51;;;;;;;5.43;2.25;;;;;;;11.67;57.25;99891.84;5029915;28;20549;-67
2022/05/13 02:36:16;;;;;;;8.85;3.00;;;;;;;11.67;57.16;99892.69;5029251;28;20106;-67
2022/05/13 02:38:41;;;;;;;8.23;2.90;;;;;;;11.66;56.81;99884.81;5029513;28;20056;-67
2022/05/13 02:41:12;;;;;;;6.18;2.70;;;;;;;11.55;57.60;99902.09;5012024;28;20029;-68
2022/05/13 02:43:50;;;;;;;9.35;2.63;;;;;;;11.51;57.74;99897.88;5029624;28;20099;-67
2022/05/13 02:46:22;;;;;;;7.53;3.20;;;;;;;11.51;57.23;99895.25;5028810;28;20033;-68
2022/05/13 02:48:48;;;;;;;6.85;2.70;;;;;;;11.48;57.87;99892.78;5025373;28;20033;-68
2022/05/13 02:51:14;;;;;;;7.90;2.42;;;;;;;11.47;57.86;99891.06;5029844;28;20033;-67
2022/05/13 02:53:40;;;;;;;9.98;3.13;;;;;;;11.44;57.65;99890.38;5030057;28;20033;-66
2022/05/13 02:56:07;;;;;;;4.80;2.60;;;;;;;11.39;57.84;99894.09;5028964;28;20047;-67
2022/05/13 02:58:33;;;;;;;12.88;3.50;;;;;;;11.36;58.04;99888.97;5029689;28;20061;-66
2022/05/13 03:00:58;;;;;;;8.68;3.13;;;;;;;11.32;58.21;99887.44;5020494;28;20026;-68
2022/05/13 03:03:24;;;;;;;10.00;3.92;;;;;;;11.30;58.04;99891.09;5010067;28;20044;-68
2022/05/13 03:05:49;;;;;;;8.90;3.58;;;;;;;11.26;58.59;99894.78;5009983;28;20044;-68
2022/05/13 03:08:14;;;;;;;10.52;4.15;;;;;;;11.21;58.69;99892.38;5010165;28;20038;-67
2022/05/13 03:10:40;;;;;;;12.32;3.22;;;;;;;11.14;58.67;99888.34;5009972;28;20034;-68
2022/05/13 03:13:07;;;;;;;8.50;2.88;;;;;;;11.14;58.51;99894.47;5009611;28;20065;-67
2022/05/13 03:15:33;;;;;;;9.88;3.55;;;;;;;11.17;58.54;99893.47;5009724;28;20038;-68
2022/05/13 03:17:59;;;;;;;5.10;3.22;;;;;;;11.14;58.80;99890.97;5008737;28;20120;-67
2022/05/13 03:20:25;;;;;;;6.63;2.60;;;;;;;11.09;58.82;99888.56;5009385;28;20451;-68
2022/05/13 03:22:51;;;;;;;7.13;2.70;;;;;;;11.05;59.09;99888.78;5008167;28;20095;-67
2022/05/13 03:25:19;;;;;;;6.53;2.78;;;;;;;11.06;58.60;99887.88;5009610;28;20046;-66
2022/05/13 03:27:44;;;;;;;7.45;3.38;;;;;;;11.03;58.81;99875.69;5009572;28;20439;-68
2022/05/13 03:30:12;;;;;;;12.82;3.10;;;;;;;10.97;59.26;99875.97;5011939;28;20042;-68
2022/05/13 03:32:37;;;;;;;6.22;2.70;;;;;;;10.99;59.21;99878.56;5023399;28;20121;-67
2022/05/13 03:35:07;;;;;;;7.00;3.10;;;;;;;11.00;58.88;99878.50;5011372;28;20124;-67
2022/05/13 03:37:33;;;;;;;5.82;2.40;;;;;;;10.97;59.50;99875.97;5028981;28;20426;-67
2022/05/13 03:39:58;;;;;;;10.70;3.00;;;;;;;10.97;59.69;99878.63;5028580;28;20041;-67
2022/05/13 03:42:25;;;;;;;6.53;3.50;;;;;;;10.92;59.38;99876.22;5011360;28;20037;-67
2022/05/13 03:44:50;;;;;;;11.27;3.20;;;;;;;10.90;59.68;99879.84;5032623;28;20041;-66
2022/05/13 03:47:16;;;;;;;13.60;3.30;;;;;;;10.89;59.74;99879.00;5043165;28;20040;-68
2022/05/13 03:49:42;;;;;;;8.25;2.83;;;;;;;10.87;59.79;99880.00;5052119;28;20483;-66
2022/05/13 03:52:08;;;;;;;17.00;3.50;;;;;;;10.77;60.01;99878.75;5052709;28;20063;-65
2022/05/13 03:54:34;;;;;;;8.38;3.22;;;;;;;10.73;60.07;99880.66;5053142;28;20033;-68
2022/05/13 03:56:59;;;;;;;12.10;3.70;;;;;;;10.73;60.24;99871.00;5052913;28;20690;-66
2022/05/13 03:59:24;;;;;;;5.53;2.72;;;;;;;10.75;60.44;99873.53;5052722;28;20037;-66
2022/05/13 04:01:50;;;;;;;4.90;2.72;;;;;;;10.77;60.31;99890.16;5051790;28;20090;-66
2022/05/13 04:04:20;;;;;;;8.77;3.53;;;;;;;10.77;60.46;99882.25;5052834;28;20036;-67
2022/05/13 04:09:30;;;;;;;7.80;3.15;;;;;;;10.70;60.92;99876.41;5050082;28;20082;-67
2022/05/13 04:17:22;;;;;;;10.38;3.17;;;;;;;10.71;61.02;99893.09;5048254;28;20079;-67
2022/05/13 04:19:48;;;;;;;8.07;3.05;;;;;;;10.71;61.02;99887.81;5030894;28;20048;-68
2022/05/13 04:22:13;;;;;;;6.88;2.92;;;;;;;10.68;61.14;99894.09;5049979;28;20090;-67
2022/05/13 04:24:39;;;;;;;10.48;3.63;;;;;;;10.70;60.97;99899.28;5013696;28;20038;-67
2022/05/13 04:27:05;;;;;;;7.70;3.17;;;;;;;10.72;61.11;99897.44;5012749;28;20107;-68
2022/05/13 04:29:33;;;;;;;7.80;3.10;;;;;;;10.75;61.24;99907.81;5012999;28;20049;-68
2022/05/13 04:31:58;;;;;;;7.82;3.30;;;;;;;10.77;61.09;99905.97;5012375;28;20092;-66
2022/05/13 04:34:24;;;;;;;4.28;2.63;;;;;;;10.77;61.13;99905.97;5012324;28;20034;-68
2022/05/13 04:36:49;;;;;;;11.63;3.53;;;;;;;10.77;61.19;99915.66;5011878;28;20403;-67
2022/05/13 04:39:15;;;;;;;7.07;2.80;;;;;;;10.73;61.41;99915.81;5012408;28;20034;-66
2022/05/13 04:44:24;;;;;;;6.88;2.83;;;;;;;10.80;61.20;99910.25;5012181;28;20494;-67
2022/05/13 04:46:50;;;;;;;9.32;3.28;;;;;;;10.83;61.32;99915.34;5020577;28;20120;-67
2022/05/13 04:49:15;;;;;;;6.78;2.80;;;;;;;10.89;60.98;99920.34;5031755;28;20037;-68
2022/05/13 04:51:41;;;;;;;10.88;3.08;;;;;;;10.96;61.20;99913.84;5032441;28;20033;-67
2022/05/13 04:54:07;;;;;;;11.43;3.22;;;;;;;10.97;61.13;99915.56;5024935;28;20058;-67
2022/05/13 04:56:33;;;;;;;11.88;3.53;;;;;;;10.98;61.45;99909.38;5011174;28;20037;-68
2022/05/13 04:58:59;;;;;;;9.93;3.13;;;;;;;10.99;60.88;99918.97;5011952;28;20038;-67
2022/05/13 05:01:25;;;;;;;7.15;3.00;;;;;;;11.01;60.79;99919.75;5011718;28;20037;-67
2022/05/13 05:03:51;;;;;;;11.45;4.05;;;;;;;11.05;60.77;99917.81;5011400;28;20495;-69
2022/05/13 05:06:19;;;;;;;6.15;2.40;;;;;;;11.03;60.92;99909.16;4993349;28;20034;-68
2022/05/13 05:08:44;;;;;;;6.82;2.85;;;;;;;11.04;60.86;99914.31;5011549;28;20180;-66
2022/05/13 05:11:12;;;;;;;8.90;3.03;;;;;;;11.12;60.53;99922.75;5012068;28;20108;-66
2022/05/13 05:13:44;;;;;;;9.02;2.67;;;;;;;11.20;60.47;99919.72;4994192;28;20057;-68
2022/05/13 05:16:10;;;;;;;11.32;3.15;;;;;;;11.26;60.50;99921.19;5014868;28;20034;-68
2022/05/13 05:18:38;;;;;;;5.97;2.95;;;;;;;11.35;60.26;99926.88;5010802;28;20583;-68
2022/05/13 05:21:05;;;;;;;6.47;3.50;;;;;;;11.45;59.80;99926.41;5011305;28;20030;-69
2022/05/13 05:23:33;;;;;;;6.22;2.70;;;;;;;11.57;59.26;99933.69;5011660;28;20026;-67
2022/05/13 05:25:59;;;;;;;11.20;3.75;;;;;;;11.66;59.01;99937.66;5011108;28;20026;-68
2022/05/13 05:28:27;;;;;;;8.75;2.88;;;;;;;11.74;58.79;99941.63;5011174;28;20045;-69
2022/05/13 05:30:53;;;;;;;7.18;2.78;;;;;;;11.78;58.61;99943.13;5011786;28;20053;-68
2022/05/13 05:33:19;;;;;;;13.45;3.17;;;;;;;11.85;58.37;99948.97;5010677;28;20088;-67
2022/05/13 05:35:44;;;;;;;6.57;2.85;;;;;;;11.93;57.87;99954.72;5011173;28;20030;-68
2022/05/13 05:38:10;;;;;;;9.73;4.10;;;;;;;11.92;57.94;99952.19;5011390;28;20025;-68
2022/05/13 05:40:37;;;;;;;10.45;3.85;;;;;;;11.95;58.29;99957.31;5010967;28;20037;-68
2022/05/13 05:43:08;;;;;;;11.32;3.28;;;;;;;12.00;58.25;99964.06;5011198;28;20630;-69
2022/05/13 05:45:37;;;;;;;6.38;3.35;;;;;;;12.03;57.74;99966.56;5011119;28;20045;-67
2022/05/13 05:48:03;;;;;;;12.00;2.83;;;;;;;12.05;57.92;99958.53;5026890;28;20140;-68
2022/05/13 05:50:29;;;;;;;6.95;3.20;;;;;;;12.11;57.71;99955.56;5030554;28;20053;-67
2022/05/13 05:52:54;;;;;;;8.85;3.05;;;;;;;12.17;57.59;99965.81;5031026;28;20033;-68
2022/05/13 05:58:07;;;;;;;8.60;3.10;;;;;;;12.15;57.43;99970.31;5030084;28;20458;-68
2022/05/13 06:00:35;;;;;;;6.68;3.00;;;;;;;12.08;57.21;99976.84;5030442;28;20045;-68
2022/05/13 06:03:02;;;;;;;9.02;2.95;;;;;;;12.15;57.52;99977.41;5030433;28;20584;-68
2022/05/13 06:05:27;;;;;;;13.45;3.30;;;;;;;12.29;57.29;99981.97;5030252;28;20665;-69
2022/05/13 06:07:54;;;;;;;11.05;3.22;;;;;;;12.40;56.87;99980.47;5029585;28;20033;-68
2022/05/13 06:10:21;;;;;;;11.32;3.13;;;;;;;12.49;56.36;99988.84;5030474;28;20140;-67
2022/05/13 06:12:46;;;;;;;5.75;2.95;;;;;;;12.53;56.53;99996.53;5030544;28;20120;-66
2022/05/13 06:15:13;;;;;;;16.75;3.45;;;;;;;12.63;56.74;99994.22;5002550;28;20129;-67
2022/05/13 06:17:43;;;;;;;14.18;3.53;;;;;;;12.62;56.22;100000.44;5019198;28;20041;-67
2022/05/13 06:20:09;;;;;;;9.90;2.67;;;;;;;12.65;56.04;100001.16;5030154;28;20037;-67
2022/05/13 06:22:34;;;;;;;6.78;2.65;;;;;;;12.68;56.51;100003.63;5029789;28;20491;-68
2022/05/13 06:25:02;;;;;;;9.13;2.85;;;;;;;12.76;56.27;99997.91;5016065;28;20623;-67
2022/05/13 06:27:27;;;;;;;10.60;3.15;;;;;;;12.90;56.31;99997.16;4991769;28;20443;-68
2022/05/13 06:29:53;;;;;;;8.55;4.13;;;;;;;13.01;55.52;100001.84;5010229;28;20066;-69
2022/05/13 06:32:18;;;;;;;8.55;2.92;;;;;;;13.11;55.36;100005.66;5010738;28;20036;-69
2022/05/13 06:34:44;;;;;;;4.22;2.45;;;;;;;13.14;55.49;99997.53;5009893;28;20038;-68
2022/05/13 06:37:09;;;;;;;8.88;2.95;;;;;;;13.11;55.31;100000.38;5010028;28;20060;-68
2022/05/13 06:39:34;;;;;;;13.30;2.92;;;;;;;13.24;55.48;100005.81;5009998;28;20054;-68
2022/05/13 06:41:59;;;;;;;9.30;2.53;;;;;;;13.42;55.37;100004.81;5010113;28;20046;-68
2022/05/13 06:44:25;;;;;;;6.60;2.83;;;;;;;13.50;54.96;100010.53;5009587;28;20081;-68
2022/05/13 06:46:50;;;;;;;10.55;2.83;;;;;;;13.63;54.17;100018.59;5016296;28;20498;-68
2022/05/13 06:49:16;;;;;;;8.18;3.00;;;;;;;13.73;54.51;100008.31;5029616;28;20521;-66
2022/05/13 06:51:41;;;;;;;8.90;3.28;;;;;;;13.65;53.95;100007.94;5030127;28;20033;-67
2022/05/13 06:54:09;;;;;;;6.22;2.45;;;;;;;13.68;54.20;100005.09;5029981;28;20609;-66
2022/05/13 06:56:37;;;;;;;12.95;3.55;;;;;;;13.77;54.15;100012.50;5029279;28;20103;-68
2022/05/13 06:59:04;;;;;;;13.05;2.80;;;;;;;13.89;53.75;100003.00;5026067;28;20034;-68
2022/05/13 07:01:29;;;;;;;6.65;2.97;;;;;;;13.93;53.50;100009.78;5005576;28;20038;-68
2022/05/13 07:03:55;;;;;;;6.40;2.17;;;;;;;14.20;53.69;100009.09;5007702;28;20392;-50
2022/05/13 07:06:21;;;;;;;6.03;2.45;;;;;;;14.55;52.97;100018.44;5007559;28;20041;-50
2022/05/13 07:08:49;;;;;;;7.05;3.00;;;;;;;14.81;51.97;100019.44;5009546;28;20569;-50
2022/05/13 07:11:15;;;;;;;8.82;3.60;;;;;;;14.97;51.36;100029.94;5009916;28;20037;-51
2022/05/13 07:13:40;;;;;;;9.70;3.70;;;;;;;15.09;51.37;100025.66;5010266;28;20030;-51
2022/05/13 07:16:05;;;;;;;14.15;2.50;;;;;;;15.22;50.82;100034.53;5009705;28;20030;-54
2022/05/13 07:18:31;;;;;;;11.82;3.22;;;;;;;15.33;50.45;100031.19;5009991;28;20049;-51
2022/05/13 07:20:56;;;;;;;13.05;2.72;;;;;;;15.46;50.34;100029.44;5009639;28;20045;-52
2022/05/13 07:23:22;;;;;;;10.10;3.00;;;;;;;15.59;49.72;100036.59;5012502;28;20403;-56
2022/05/13 07:25:47;;;;;;;14.88;5.10;;;;;;;15.73;52.09;100033.91;5009523;28;20120;-56
2022/05/13 07:28:13;;;;;;;8.07;3.53;;;;;;;15.96;51.66;100040.34;5009087;28;20062;-56
2022/05/13 07:30:38;;;;;;;6.15;3.42;;;;;;;16.18;49.87;100042.41;5009460;28;20403;-51
2022/05/13 07:33:04;;;;;;;13.57;3.25;;;;;;;16.28;49.89;100037.31;4997457;28;20111;-53
2022/05/13 07:35:30;;;;;;;19.98;5.68;;;;;;;16.35;48.96;100048.38;4987955;28;20069;-54
2022/05/13 07:37:55;;;;;;;11.55;4.28;;;;;;;16.33;48.78;100042.31;4984814;28;20045;-55
2022/05/13 07:43:05;;;;;;;140.43;21.23;;;;;;;16.63;47.65;100034.81;5022844;28;20433;-52
2022/05/13 07:45:34;;;;;;;21.48;6.60;;;;;;;16.59;47.81;100041.34;5023242;28;20042;-55
2022/05/13 07:48:01;;;;;;;4.32;2.58;;;;;;;16.72;47.91;100042.16;5005889;28;20042;-67
2022/05/13 07:50:28;;;;;;;8.95;2.60;;;;;;;16.72;47.24;100038.66;5004464;28;20065;-69
2022/05/13 07:52:53;;;;;;;10.98;3.65;;;;;;;16.72;47.60;100041.34;5004719;28;20034;-67
2022/05/13 07:55:19;;;;;;;8.30;3.55;;;;;;;16.73;47.30;100045.69;5004261;28;20115;-69
2022/05/13 07:57:45;;;;;;;10.45;2.97;;;;;;;16.90;47.21;100042.69;5006614;28;20818;-68
2022/05/13 08:00:25;;;;;;;8.63;2.88;;;;;;;17.02;46.80;100045.47;5009053;28;20299;-68
2022/05/13 08:02:56;;;;;;;11.30;3.72;;;;;;;17.19;46.29;100057.56;5029466;28;20093;-68
2022/05/13 08:05:22;;;;;;;4.72;2.47;;;;;;;17.32;46.36;100048.56;5014301;28;20036;-67
2022/05/13 08:07:48;;;;;;;6.28;2.97;;;;;;;17.35;45.26;100051.00;5012812;28;20414;-67
2022/05/13 08:10:16;;;;;;;8.02;3.15;;;;;;;17.49;45.05;100041.13;5031234;28;20038;-66
2022/05/13 08:12:43;;;;;;;9.63;2.78;;;;;;;17.56;44.71;100040.56;5028911;28;20033;-67
2022/05/13 08:15:09;;;;;;;7.57;3.03;;;;;;;17.69;44.68;100036.97;5028051;28;20583;-67
2022/05/13 08:17:35;;;;;;;7.35;3.10;;;;;;;17.71;44.61;100043.06;5026783;28;20033;-67
2022/05/13 08:20:01;;;;;;;7.78;2.63;;;;;;;17.63;45.33;100043.63;5028001;28;20044;-68
2022/05/13 08:22:26;;;;;;;7.88;3.20;;;;;;;17.52;44.95;100039.13;5027677;28;20037;-69
2022/05/13 08:24:52;;;;;;;10.10;3.72;;;;;;;17.54;45.67;100041.66;5027237;28;20076;-70
2022/05/13 08:27:17;;;;;;;7.47;2.30;;;;;;;17.33;46.01;100039.59;5027309;28;20055;-68
2022/05/13 08:29:42;;;;;;;9.77;2.78;;;;;;;17.46;45.95;100042.22;5048104;28;20072;-68
2022/05/13 08:32:08;;;;;;;6.72;2.50;;;;;;;17.65;45.28;100052.38;5047674;28;20399;-68
2022/05/13 08:34:33;;;;;;;9.10;3.42;;;;;;;17.81;45.39;100052.94;5047512;28;20062;-68
2022/05/13 08:36:59;;;;;;;8.40;3.05;;;;;;;18.03;44.40;100043.31;5047004;28;20727;-68
2022/05/13 08:39:24;;;;;;;8.18;2.58;;;;;;;18.16;43.92;100043.22;5047681;28;20506;-68
2022/05/13 08:41:49;;;;;;;35.60;3.83;;;;;;;18.18;43.09;100043.97;5047853;28;20430;-68
2022/05/13 08:44:15;;;;;;;7.47;2.55;;;;;;;18.18;43.49;100049.31;5029943;28;20037;-68
2022/05/13 08:46:50;;;;;;;9.80;2.70;;;;;;;18.30;43.71;100037.69;5039690;28;20045;-69
2022/05/13 08:49:55;;;;;;;5.40;2.58;;;;;;;18.43;43.44;100048.25;5027198;28;20478;-67
2022/05/13 08:55:24;;;;;;;6.93;2.63;;;;;;;18.47;43.13;100046.22;5027315;28;20048;-67
2022/05/13 08:57:49;;;;;;;6.88;3.30;;;;;;;18.48;43.28;100046.06;5008853;28;20045;-66
2022/05/13 09:00:39;;;;;;;8.85;2.40;;;;;;;18.37;43.11;100046.06;5027488;28;20060;-68
2022/05/13 09:03:17;;;;;;;5.97;2.60;;;;;;;18.43;43.52;100053.59;5026532;28;20592;-68
2022/05/13 09:05:49;;;;;;;16.27;3.45;;;;;;;18.64;42.47;100053.75;5006943;28;20511;-67
2022/05/13 09:08:14;;;;;;;13.20;3.67;;;;;;;18.80;42.45;100048.06;5007068;28;20072;-68
2022/05/13 09:11:14;;;;;;;6.32;2.38;;;;;;;18.71;41.96;100056.78;5006873;28;20132;-68
2022/05/13 09:13:58;;;;;;;4.80;2.17;;;;;;;19.41;40.41;100048.47;4991021;28;20037;-69
2022/05/13 09:16:40;;;;;;;12.82;3.08;;;;;;;19.55;39.97;100049.16;5005599;28;20038;-71
2022/05/13 09:19:21;;;;;;;6.93;2.55;;;;;;;19.16;40.51;100054.13;5006903;28;20658;-66
2022/05/13 09:21:47;;;;;;;9.57;2.50;;;;;;;19.73;39.33;100053.84;5005924;28;20161;-68
2022/05/13 09:24:12;;;;;;;8.35;2.90;;;;;;;20.54;37.14;100053.28;5006920;28;20040;-67
2022/05/13 09:26:41;;;;;;;6.38;2.50;;;;;;;21.43;35.65;100061.56;5007150;28;20073;-67
2022/05/13 09:29:17;;;;;;;11.75;2.47;;;;;;;22.45;33.92;100053.09;5007120;28;20615;-68
2022/05/13 09:31:47;;;;;;;8.80;2.30;;;;;;;22.49;33.18;100055.31;5007244;28;20455;-68
2022/05/13 09:34:35;;;;;;;3.58;2.65;;;;;;;22.91;30.82;100054.03;5006888;28;20038;-68
2022/05/13 09:37:16;;;;;;;15.63;2.60;;;;;;;22.63;32.24;100048.63;5005922;28;20038;-69
2022/05/13 09:39:45;;;;;;;7.75;2.40;;;;;;;23.69;30.92;100049.06;5007195;28;20029;-68
2022/05/13 09:42:18;;;;;;;6.60;2.33;;;;;;;22.79;31.39;100053.41;5006999;28;20075;-69
2022/05/13 09:44:44;;;;;;;16.10;2.80;;;;;;;22.93;31.58;100044.00;5006666;28;20042;-70
2022/05/13 09:47:26;;;;;;;6.40;2.20;;;;;;;22.31;31.80;100053.53;5004404;28;20118;-67
2022/05/13 09:49:52;;;;;;;8.00;2.35;;;;;;;22.75;30.54;100043.94;5006870;28;20041;-68
2022/05/13 09:52:37;;;;;;;4.25;2.53;;;;;;;22.82;30.07;100053.09;5006802;28;20041;-68
2022/05/13 09:55:24;;;;;;;5.55;2.25;;;;;;;22.83;29.70;100052.09;5006494;28;20038;-68
2022/05/13 09:57:51;;;;;;;6.25;2.67;;;;;;;23.23;29.70;100055.47;5004119;28;20065;-68
2022/05/13 10:00:23;;;;;;;3.60;2.60;;;;;;;23.81;27.82;100052.41;5021717;28;20037;-68
2022/05/13 10:03:04;;;;;;;4.55;3.45;;;;;;;23.98;27.00;100050.72;5026535;28;20040;-68
2022/05/13 10:05:32;;;;;;;8.05;2.63;;;;;;;24.53;27.26;100045.06;5026054;28;20041;-66
2022/05/13 10:08:05;;;;;;;5.00;2.00;;;;;;;24.10;27.56;100041.38;5024058;28;20556;-69
2022/05/13 10:13:59;;;;;;;6.30;2.20;;;;;;;22.46;29.37;100042.19;5001136;28;20041;-68
2022/05/13 10:16:39;;;;;;;6.65;1.90;;;;;;;23.06;28.80;100047.22;5023308;28;20042;-67
2022/05/13 10:19:23;;;;;;;5.00;1.98;;;;;;;22.96;28.72;100045.53;5026012;28;20041;-69
2022/05/13 10:22:09;;;;;;;4.00;1.90;;;;;;;22.17;29.84;100047.56;5004101;28;20046;-69
2022/05/13 10:24:44;;;;;;;6.97;2.10;;;;;;;22.56;29.32;100052.06;5006174;28;20057;-69
2022/05/13 10:27:21;;;;;;;3.92;1.83;;;;;;;23.29;28.33;100042.28;5005579;28;20092;-70
2022/05/13 10:29:50;;;;;;;8.65;2.67;;;;;;;23.26;29.24;100052.47;4999135;28;20066;-67
2022/05/13 10:32:48;;;;;;;35.80;5.65;;;;;;;23.51;28.13;100029.38;5005664;28;20044;-69
2022/05/13 10:35:19;;;;;;;14.10;2.38;;;;;;;23.41;28.80;100059.06;4972819;28;20042;-69
2022/05/13 10:37:57;;;;;;;15.35;2.75;;;;;;;22.77;29.09;100052.69;4995041;28;20037;-69
2022/05/13 10:40:23;;;;;;;5.40;2.05;;;;;;;22.66;29.58;100050.19;5005275;28;20029;-69
2022/05/13 10:43:02;;;;;;;4.80;2.22;;;;;;;23.18;28.88;100050.53;5005653;28;20045;-69
2022/05/13 10:45:30;;;;;;;8.68;2.75;;;;;;;22.93;29.00;100042.13;5004309;28;20411;-70
2022/05/13 10:48:17;;;;;;;5.65;2.05;;;;;;;23.36;28.82;100054.13;5018939;28;20678;-68
2022/05/13 10:51:07;;;;;;;5.60;1.90;;;;;;;23.24;28.72;100052.63;5028270;28;20097;-68
2022/05/13 10:53:52;;;;;;;6.32;2.33;;;;;;;22.98;29.35;100055.16;5033765;28;20061;-68
2022/05/13 10:56:39;;;;;;;6.80;2.58;;;;;;;22.99;29.51;100045.25;5015182;28;20045;-69
2022/05/13 10:59:14;;;;;;;6.28;2.08;;;;;;;22.71;30.06;100053.28;5011967;28;20030;-69
2022/05/13 11:02:00;;;;;;;4.60;1.67;;;;;;;22.36;30.92;100045.91;5013077;28;20042;-67
2022/05/13 11:04:41;;;;;;;7.20;2.78;;;;;;;22.26;30.76;100044.06;5026298;28;20122;-67
2022/05/13 11:07:36;;;;;;;16.88;3.83;;;;;;;22.18;31.22;100049.28;5027140;28;20052;-68
2022/05/13 11:10:22;;;;;;;4.85;2.65;;;;;;;21.94;31.27;100055.09;4979588;28;20048;-69
2022/05/13 11:13:23;;;;;;;4.75;1.85;;;;;;;21.68;31.83;100048.59;5007398;28;20049;-69
2022/05/13 11:16:03;;;;;;;7.80;2.33;;;;;;;21.54;32.00;100036.47;5006369;28;20057;-68
2022/05/13 11:18:51;;;;;;;11.70;3.00;;;;;;;21.49;32.27;100044.09;5005704;28;20034;-69
2022/05/13 11:21:22;;;;;;;5.00;2.08;;;;;;;21.37;32.17;100041.50;5005583;28;20044;-67
2022/05/13 11:27:30;;;;;;;8.48;2.78;;;;;;;21.27;32.72;100046.00;5023788;28;20072;-68
2022/05/13 11:30:06;;;;;;;3.92;1.83;;;;;;;21.14;32.59;100040.88;4973493;28;20045;-69
2022/05/13 11:32:50;;;;;;;8.68;2.42;;;;;;;21.10;32.63;100043.97;5005131;28;20042;-69
2022/05/13 11:35:38;;;;;;;9.43;2.63;;;;;;;20.97;32.86;100042.38;5023379;28;20041;-68
2022/05/13 11:38:10;;;;;;;8.38;1.83;;;;;;;21.28;32.60;100054.88;5023427;28;20065;-69
2022/05/13 11:40:53;;;;;;;5.70;2.30;;;;;;;21.19;32.46;100057.41;5006935;28;20043;-69
2022/05/13 11:43:29;;;;;;;6.63;2.00;;;;;;;21.24;32.50;100057.00;5024294;28;20034;-68
2022/05/13 11:46:22;;;;;;;5.28;2.20;;;;;;;21.08;32.82;100057.50;5023361;28;20049;-68
2022/05/13 11:48:51;;;;;;;8.43;2.10;;;;;;;21.11;32.66;100057.22;4986975;28;20411;-67
2022/05/13 11:51:29;;;;;;;3.40;1.75;;;;;;;21.17;32.89;100054.00;4967716;28;20038;-68
2022/05/13 11:54:00;;;;;;;5.43;2.25;;;;;;;21.09;32.99;100061.03;5004732;28;20045;-69
2022/05/13 11:56:29;;;;;;;7.13;2.50;;;;;;;20.75;33.31;100056.81;5004057;28;20049;-68
2022/05/13 11:59:29;;;;;;;4.78;2.13;;;;;;;20.65;33.32;100055.94;5005990;28;20052;-68
2022/05/13 12:01:57;;;;;;;4.90;2.22;;;;;;;20.59;33.87;100043.06;4971875;28;20133;-68
2022/05/13 12:04:27;;;;;;;15.18;2.83;;;;;;;20.62;34.12;100033.91;5005747;28;20042;-68